Time;durP1;ratioP1;P1;durP2;ratioP2;P2;SDS_P1;SDS_P2;PMS_P1;PMS_P2;Temp;Humidity;BMP_temperature;BMP_pressure;BME280_temperature;BME280_humidity;BME280_pressure;Samples;Min_cycle;Max_cycle;Signal;HPM_P1;HPM_P2
2023/08/07 00:01:04;;;;;;;2.15;1.27;;;;;;;;;;5020245;28;20197;-69
2023/08/07 00:03:49;;;;;;;3.42;1.52;;;;;;;;;;5008122;28;20068;-68
2023/08/07 00:06:34;;;;;;;4.60;1.58;;;;;;;;;;5007038;28;20022;-69
2023/08/07 00:09:20;;;;;;;1.70;1.20;;;;;;;;;;5007903;28;20076;-74
2023/08/07 00:12:05;;;;;;;3.15;1.58;;;;;;;;;;5008096;28;20154;-73
2023/08/07 00:14:50;;;;;;;2.60;1.50;;;;;;;;;;5007377;28;20535;-73
2023/08/07 00:17:35;;;;;;;4.00;1.55;;;;;;;;;;5002007;28;20038;-74
2023/08/07 00:20:21;;;;;;;2.85;1.50;;;;;;;;;;5002159;28;20032;-73
2023/08/07 00:23:06;;;;;;;3.80;1.88;;;;;;;;;;5003536;28;20057;-74
2023/08/07 00:25:51;;;;;;;4.22;1.60;;;;;;;;;;5028857;28;20037;-74
2023/08/07 00:28:36;;;;;;;2.55;1.40;;;;;;;;;;5007359;28;20041;-68
2023/08/07 00:31:22;;;;;;;2.70;1.67;;;;;;;;;;5007348;28;20065;-72
2023/08/07 00:34:07;;;;;;;3.70;1.90;;;;;;;;;;5007151;28;20073;-74
2023/08/07 00:36:52;;;;;;;11.80;3.13;;;;;;;;;;4997812;28;20050;-70
2023/08/07 00:39:37;;;;;;;3.15;1.25;;;;;;;;;;5013728;28;20033;-70
2023/08/07 00:42:23;;;;;;;3.95;1.83;;;;;;;;;;5021291;28;20032;-71
2023/08/07 00:45:08;;;;;;;2.85;1.63;;;;;;;;;;5007519;28;20536;-71
2023/08/07 00:47:53;;;;;;;2.70;1.30;;;;;;;;;;4998585;28;20029;-69
2023/08/07 00:50:40;;;;;;;5.60;1.33;;;;;;;;;;5013175;28;20037;-66
2023/08/07 00:53:25;;;;;;;3.13;1.77;;;;;;;;;;5020068;28;20042;-67
2023/08/07 00:56:10;;;;;;;1.95;1.63;;;;;;;;;;5007991;28;20373;-66
2023/08/07 00:58:56;;;;;;;3.55;1.40;;;;;;;;;;5003939;28;20104;-67
2023/08/07 01:01:41;;;;;;;2.47;1.40;;;;;;;;;;5024598;28;20385;-67
2023/08/07 01:04:26;;;;;;;4.80;1.63;;;;;;;;;;5025845;28;20030;-76
2023/08/07 01:07:12;;;;;;;3.50;1.67;;;;;;;;;;4995439;28;20049;-71
2023/08/07 01:10:02;;;;;;;3.47;1.65;;;;;;;;;;5022453;28;20649;-68
2023/08/07 01:12:57;;;;;;;2.97;1.90;;;;;;;;;;5003775;28;20144;-70
2023/08/07 01:15:42;;;;;;;2.40;1.60;;;;;;;;;;5017546;28;20116;-69
2023/08/07 01:18:28;;;;;;;4.93;1.40;;;;;;;;;;5022164;28;20057;-68
2023/08/07 01:21:17;;;;;;;2.95;1.50;;;;;;;;;;5021116;28;20488;-68
2023/08/07 01:24:02;;;;;;;4.10;1.63;;;;;;;;;;5010240;28;20034;-66
2023/08/07 01:26:48;;;;;;;4.43;1.52;;;;;;;;;;4996697;28;21013;-69
2023/08/07 01:29:36;;;;;;;5.55;1.80;;;;;;;;;;4997438;28;20492;-69
2023/08/07 01:32:26;;;;;;;2.70;1.60;;;;;;;;;;5010800;28;20041;-70
2023/08/07 01:35:12;;;;;;;5.18;1.50;;;;;;;;;;5008884;28;20041;-69
2023/08/07 01:37:58;;;;;;;4.90;1.58;;;;;;;;;;5009308;28;20037;-66
2023/08/07 01:40:44;;;;;;;2.55;1.52;;;;;;;;;;5023585;28;20037;-67
2023/08/07 01:43:30;;;;;;;3.47;1.30;;;;;;;;;;5023063;28;20495;-68
2023/08/07 01:46:16;;;;;;;3.47;1.58;;;;;;;;;;5011131;28;20030;-66
2023/08/07 01:49:01;;;;;;;3.25;1.52;;;;;;;;;;5024119;28;20068;-66
2023/08/07 01:51:46;;;;;;;3.30;1.70;;;;;;;;;;5022932;28;20538;-68
2023/08/07 01:54:31;;;;;;;4.60;1.63;;;;;;;;;;5009589;28;20111;-69
2023/08/07 01:57:17;;;;;;;3.08;1.25;;;;;;;;;;4998344;28;20038;-68
2023/08/07 02:00:03;;;;;;;3.88;1.48;;;;;;;;;;5024320;28;20400;-68
2023/08/07 02:02:49;;;;;;;2.72;1.30;;;;;;;;;;5007243;28;20088;-69
2023/08/07 02:05:34;;;;;;;2.53;1.10;;;;;;;;;;5018317;28;20021;-67
2023/08/07 02:08:19;;;;;;;3.25;1.50;;;;;;;;;;5010139;28;20034;-71
2023/08/07 02:11:04;;;;;;;4.97;1.77;;;;;;;;;;5022757;28;20232;-71
2023/08/07 02:13:49;;;;;;;6.05;1.77;;;;;;;;;;5007390;28;20480;-72
2023/08/07 02:16:35;;;;;;;2.95;1.50;;;;;;;;;;4998327;28;20056;-71
2023/08/07 02:19:21;;;;;;;5.10;1.73;;;;;;;;;;5023734;28;20030;-78
2023/08/07 02:22:06;;;;;;;5.57;2.20;;;;;;;;;;5022424;28;20033;-67
2023/08/07 02:24:51;;;;;;;6.90;2.00;;;;;;;;;;5005923;28;20364;-67
2023/08/07 02:27:37;;;;;;;4.10;1.80;;;;;;;;;;5007861;28;20073;-66
2023/08/07 02:30:22;;;;;;;3.72;1.58;;;;;;;;;;5006410;28;20026;-67
2023/08/07 02:33:07;;;;;;;5.68;1.75;;;;;;;;;;5009676;28;20491;-65
2023/08/07 02:35:52;;;;;;;2.95;1.50;;;;;;;;;;4997923;28;20088;-66
2023/08/07 02:38:38;;;;;;;2.90;1.40;;;;;;;;;;5006329;28;20125;-71
2023/08/07 02:41:23;;;;;;;2.78;1.48;;;;;;;;;;5002490;28;20041;-71
2023/08/07 02:44:08;;;;;;;2.83;1.50;;;;;;;;;;5005436;28;20022;-71
2023/08/07 02:46:53;;;;;;;2.47;1.40;;;;;;;;;;5008899;28;20546;-71
2023/08/07 02:49:38;;;;;;;4.05;1.60;;;;;;;;;;5010199;28;20033;-71
2023/08/07 02:52:24;;;;;;;1.88;1.50;;;;;;;;;;5008440;28;20104;-72
2023/08/07 02:55:09;;;;;;;4.55;1.85;;;;;;;;;;5009855;28;20048;-63
2023/08/07 02:57:54;;;;;;;7.13;2.22;;;;;;;;;;5009564;28;20022;-75
2023/08/07 03:00:39;;;;;;;5.28;2.42;;;;;;;;;;5005967;28;20037;-74
2023/08/07 03:03:25;;;;;;;3.72;1.55;;;;;;;;;;5009321;28;20057;-75
2023/08/07 03:06:10;;;;;;;4.13;1.58;;;;;;;;;;5008637;28;20506;-75
2023/08/07 03:08:55;;;;;;;3.38;1.60;;;;;;;;;;5009375;28;20030;-74
2023/08/07 03:12:02;;;;;;;;;;;;;;;;;;;;;
2023/08/07 03:14:54;;;;;;;4.30;1.88;;;;;;;;;;5020419;28;20034;-75
2023/08/07 03:17:39;;;;;;;6.95;2.20;;;;;;;;;;5022291;28;20080;-66
2023/08/07 03:20:24;;;;;;;5.57;1.60;;;;;;;;;;5003402;28;20091;-66
2023/08/07 03:23:10;;;;;;;8.60;1.90;;;;;;;;;;5016322;28;20111;-64
2023/08/07 03:26:08;;;;;;;5.93;1.52;;;;;;;;;;5022418;28;20499;-65
2023/08/07 03:28:54;;;;;;;6.20;2.15;;;;;;;;;;5008877;28;20057;-65
2023/08/07 03:31:39;;;;;;;6.80;1.80;;;;;;;;;;5006740;28;20840;-77
2023/08/07 03:34:24;;;;;;;6.35;1.63;;;;;;;;;;5015723;28;20033;-77
2023/08/07 03:37:09;;;;;;;7.30;1.80;;;;;;;;;;5021143;28;20037;-69
2023/08/07 03:39:54;;;;;;;4.43;1.83;;;;;;;;;;5008816;28;20385;-69
2023/08/07 03:42:40;;;;;;;4.57;2.47;;;;;;;;;;5022306;28;20034;-68
2023/08/07 03:45:25;;;;;;;6.68;2.47;;;;;;;;;;5007366;28;20034;-70
2023/08/07 03:48:10;;;;;;;5.30;2.20;;;;;;;;;;5008533;28;20145;-69
2023/08/07 03:51:08;;;;;;;9.18;2.45;;;;;;;;;;5001378;28;20083;-65
2023/08/07 03:53:53;;;;;;;4.53;1.40;;;;;;;;;;5020009;28;20042;-69
2023/08/07 03:56:38;;;;;;;8.93;1.65;;;;;;;;;;5000215;28;20508;-68
2023/08/07 03:59:23;;;;;;;5.20;1.60;;;;;;;;;;5021720;28;20038;-70
2023/08/07 04:02:08;;;;;;;8.13;2.30;;;;;;;;;;5018274;28;20018;-70
2023/08/07 04:04:54;;;;;;;3.10;1.83;;;;;;;;;;5021289;28;20626;-69
2023/08/07 04:07:39;;;;;;;7.10;2.00;;;;;;;;;;5007138;28;20030;-69
2023/08/07 04:10:24;;;;;;;3.58;1.65;;;;;;;;;;5008805;28;20037;-71
2023/08/07 04:13:09;;;;;;;5.10;1.73;;;;;;;;;;4991514;28;20025;-69
2023/08/07 04:15:55;;;;;;;6.13;1.90;;;;;;;;;;5006839;28;20565;-69
2023/08/07 04:18:40;;;;;;;7.13;2.13;;;;;;;;;;5007350;28;20584;-68
2023/08/07 04:21:25;;;;;;;3.60;1.67;;;;;;;;;;4994180;28;20026;-69
2023/08/07 04:24:11;;;;;;;7.68;2.22;;;;;;;;;;5005422;28;20584;-70
2023/08/07 04:26:56;;;;;;;4.53;1.90;;;;;;;;;;5021476;28;20100;-68
2023/08/07 04:29:41;;;;;;;4.22;1.95;;;;;;;;;;5006052;28;20042;-66
2023/08/07 04:32:27;;;;;;;3.13;1.20;;;;;;;;;;5000168;28;20038;-71
2023/08/07 04:35:12;;;;;;;4.32;1.60;;;;;;;;;;5007952;28;20532;-70
2023/08/07 04:37:57;;;;;;;2.78;1.63;;;;;;;;;;5024664;28;20029;-70
2023/08/07 04:40:46;;;;;;;2.50;1.50;;;;;;;;;;5012693;28;20029;-69
2023/08/07 04:43:32;;;;;;;4.70;1.75;;;;;;;;;;5002508;28;20030;-69
2023/08/07 04:46:17;;;;;;;5.20;2.05;;;;;;;;;;5001487;28;20071;-75
2023/08/07 04:49:03;;;;;;;5.40;1.90;;;;;;;;;;5008372;28;20069;-74
2023/08/07 04:51:48;;;;;;;5.65;1.60;;;;;;;;;;5011863;28;20045;-74
2023/08/07 04:54:33;;;;;;;2.92;1.40;;;;;;;;;;5006317;28;20030;-75
2023/08/07 04:57:18;;;;;;;4.63;2.00;;;;;;;;;;5011508;28;20258;-74
2023/08/07 05:00:04;;;;;;;5.35;1.70;;;;;;;;;;5006145;28;20483;-75
2023/08/07 05:02:49;;;;;;;10.70;1.88;;;;;;;;;;5003279;28;20045;-75
2023/08/07 05:05:34;;;;;;;3.60;1.73;;;;;;;;;;5020201;28;20487;-83
2023/08/07 05:08:19;;;;;;;7.20;2.22;;;;;;;;;;5015406;28;20121;-82
2023/08/07 05:11:05;;;;;;;3.17;1.52;;;;;;;;;;5006902;28;20448;-82
2023/08/07 05:13:50;;;;;;;4.13;1.80;;;;;;;;;;5009868;28;20034;-81
2023/08/07 05:16:35;;;;;;;11.60;1.80;;;;;;;;;;5017049;28;20072;-82
2023/08/07 05:19:21;;;;;;;6.25;1.65;;;;;;;;;;5011098;28;20040;-82
2023/08/07 05:22:06;;;;;;;5.80;1.77;;;;;;;;;;5007013;28;20026;-71
2023/08/07 05:24:51;;;;;;;5.18;2.17;;;;;;;;;;5016822;28;20370;-71
2023/08/07 05:27:36;;;;;;;5.88;1.52;;;;;;;;;;5023502;28;20049;-69
2023/08/07 05:30:22;;;;;;;9.75;2.92;;;;;;;;;;5009072;28;20029;-69
2023/08/07 05:33:07;;;;;;;4.93;1.73;;;;;;;;;;5009198;28;20022;-69
2023/08/07 05:35:52;;;;;;;5.18;1.83;;;;;;;;;;4997811;28;20042;-69
2023/08/07 05:38:38;;;;;;;7.05;2.20;;;;;;;;;;5020398;28;20520;-69
2023/08/07 05:41:23;;;;;;;5.93;2.47;;;;;;;;;;5010820;28;20025;-69
2023/08/07 05:44:08;;;;;;;2.38;1.45;;;;;;;;;;4989509;28;20102;-65
2023/08/07 05:46:53;;;;;;;10.13;1.80;;;;;;;;;;4994282;28;20072;-65
2023/08/07 05:49:38;;;;;;;3.95;1.65;;;;;;;;;;5008933;28;20128;-66
2023/08/07 05:52:24;;;;;;;8.63;1.80;;;;;;;;;;5008809;28;20040;-63
2023/08/07 05:55:09;;;;;;;6.68;2.75;;;;;;;;;;5007109;28;20029;-64
2023/08/07 05:57:54;;;;;;;6.43;1.80;;;;;;;;;;5015028;28;20037;-66
2023/08/07 06:00:40;;;;;;;10.82;1.80;;;;;;;;;;5006131;28;20077;-84
2023/08/07 06:03:25;;;;;;;8.77;1.90;;;;;;;;;;5005783;28;20029;-70
2023/08/07 06:06:10;;;;;;;3.67;1.42;;;;;;;;;;4993202;28;20036;-70
2023/08/07 06:08:55;;;;;;;6.35;1.42;;;;;;;;;;5000990;28;20528;-70
2023/08/07 06:11:41;;;;;;;5.28;1.63;;;;;;;;;;4996150;28;20057;-70
2023/08/07 06:14:26;;;;;;;3.03;1.90;;;;;;;;;;5020712;28;20030;-69
2023/08/07 06:17:12;;;;;;;4.65;1.40;;;;;;;;;;5016848;28;20100;-70
2023/08/07 06:19:57;;;;;;;4.97;2.00;;;;;;;;;;4981778;28;20088;-70
2023/08/07 06:22:42;;;;;;;4.88;1.95;;;;;;;;;;5003948;28;20095;-65
2023/08/07 06:25:28;;;;;;;3.78;1.60;;;;;;;;;;5006482;28;20042;-65
2023/08/07 06:28:13;;;;;;;6.63;1.90;;;;;;;;;;5009287;28;20100;-64
2023/08/07 06:31:06;;;;;;;7.78;2.25;;;;;;;;;;4999860;28;20125;-64
2023/08/07 06:33:51;;;;;;;5.53;2.10;;;;;;;;;;5008894;28;20033;-64
2023/08/07 06:36:36;;;;;;;4.85;2.10;;;;;;;;;;5009302;28;20077;-69
2023/08/07 06:39:22;;;;;;;3.70;1.70;;;;;;;;;;5004252;28;20117;-90
2023/08/07 06:42:07;;;;;;;13.18;2.78;;;;;;;;;;5011503;28;20123;-89
2023/08/07 06:44:52;;;;;;;4.65;1.83;;;;;;;;;;5012343;28;20424;-87
2023/08/07 06:47:37;;;;;;;6.03;2.08;;;;;;;;;;5003754;28;20038;-90
2023/08/07 06:50:23;;;;;;;7.15;1.60;;;;;;;;;;5007219;28;20044;-89
2023/08/07 06:53:09;;;;;;;5.15;1.60;;;;;;;;;;5011662;28;20451;-89
2023/08/07 06:55:54;;;;;;;6.53;1.73;;;;;;;;;;4992859;28;20503;-71
2023/08/07 06:58:39;;;;;;;5.72;1.75;;;;;;;;;;5011874;28;20025;-86
2023/08/07 07:01:24;;;;;;;3.15;1.70;;;;;;;;;;5002550;28;20182;-91
2023/08/07 07:04:10;;;;;;;5.53;2.15;;;;;;;;;;5008212;28;20026;-91
2023/08/07 07:06:55;;;;;;;3.10;1.77;;;;;;;;;;4991950;28;20026;-92
2023/08/07 07:09:40;;;;;;;3.55;1.92;;;;;;;;;;5014561;28;20032;-90
2023/08/07 07:12:28;;;;;;;3.70;1.60;;;;;;;;;;4985845;28;20026;-67
2023/08/07 07:15:13;;;;;;;5.60;1.60;;;;;;;;;;5000885;28;20572;-68
2023/08/07 07:17:51;;;;;;;3.08;1.60;;;;;;;;;;4988325;28;20042;-79
2023/08/07 07:20:37;;;;;;;3.10;1.40;;;;;;;;;;4989478;28;20065;-77
2023/08/07 07:23:22;;;;;;;4.03;1.80;;;;;;;;;;4989140;28;20278;-77
2023/08/07 07:26:07;;;;;;;4.57;1.95;;;;;;;;;;4988400;28;20034;-79
2023/08/07 07:28:52;;;;;;;4.82;2.55;;;;;;;;;;4989515;28;20033;-77
2023/08/07 07:31:37;;;;;;;3.95;1.60;;;;;;;;;;4988691;28;20034;-71
2023/08/07 07:34:23;;;;;;;2.45;1.40;;;;;;;;;;4987874;28;20031;-75
2023/08/07 07:37:08;;;;;;;2.90;1.50;;;;;;;;;;4989052;28;20029;-75
2023/08/07 07:39:53;;;;;;;3.53;1.50;;;;;;;;;;4987974;28;20117;-76
2023/08/07 07:42:38;;;;;;;2.33;1.50;;;;;;;;;;4989401;28;20473;-75
2023/08/07 07:45:23;;;;;;;4.03;1.65;;;;;;;;;;4975359;28;20042;-76
2023/08/07 07:48:09;;;;;;;3.13;1.55;;;;;;;;;;4975170;28;20057;-75
2023/08/07 07:51:02;;;;;;;5.25;1.70;;;;;;;;;;4975370;28;20030;-74
2023/08/07 07:53:47;;;;;;;3.88;1.70;;;;;;;;;;4974121;28;20026;-70
2023/08/07 07:56:32;;;;;;;7.28;2.47;;;;;;;;;;4987298;28;20038;-71
2023/08/07 07:59:18;;;;;;;3.30;1.40;;;;;;;;;;4961182;28;20018;-71
2023/08/07 08:02:03;;;;;;;2.58;1.35;;;;;;;;;;4975455;28;20034;-70
2023/08/07 08:04:48;;;;;;;2.85;1.58;;;;;;;;;;4974049;28;20034;-70
2023/08/07 08:07:34;;;;;;;5.25;1.55;;;;;;;;;;4975559;28;20226;-70
2023/08/07 08:10:19;;;;;;;3.20;1.50;;;;;;;;;;4972222;28;20037;-77
2023/08/07 08:13:04;;;;;;;5.68;1.83;;;;;;;;;;4975493;28;20073;-75
2023/08/07 08:15:50;;;;;;;5.97;1.30;;;;;;;;;;4969644;28;20627;-76
2023/08/07 08:18:35;;;;;;;2.25;1.17;;;;;;;;;;4977246;28;20022;-76
2023/08/07 08:21:20;;;;;;;5.18;2.13;;;;;;;;;;4973367;28;20050;-75
2023/08/07 08:24:05;;;;;;;3.83;1.63;;;;;;;;;;4975296;28;20449;-75
2023/08/07 08:26:51;;;;;;;2.75;1.35;;;;;;;;;;4987879;28;20026;-71
2023/08/07 08:29:36;;;;;;;4.88;1.40;;;;;;;;;;4974090;28;20033;-76
2023/08/07 08:32:21;;;;;;;3.25;1.65;;;;;;;;;;4974829;28;20114;-76
2023/08/07 08:35:07;;;;;;;3.80;1.27;;;;;;;;;;4983208;28;20117;-75
2023/08/07 08:37:52;;;;;;;3.05;1.15;;;;;;;;;;4987315;28;20042;-76
2023/08/07 08:40:38;;;;;;;2.63;1.30;;;;;;;;;;4977332;28;20121;-76
2023/08/07 08:43:23;;;;;;;3.75;1.20;;;;;;;;;;4981821;28;20028;-75
2023/08/07 08:46:09;;;;;;;2.70;1.65;;;;;;;;;;4985370;28;20089;-79
2023/08/07 08:48:56;;;;;;;4.00;1.10;;;;;;;;;;4981615;28;20045;-72
2023/08/07 08:51:42;;;;;;;2.63;1.30;;;;;;;;;;4971149;28;20485;-73
2023/08/07 08:54:28;;;;;;;3.78;1.70;;;;;;;;;;4972178;28;20037;-73
2023/08/07 08:57:13;;;;;;;1.25;1.15;;;;;;;;;;4980472;28;20526;-71
2023/08/07 08:59:59;;;;;;;2.58;1.30;;;;;;;;;;4982328;28;20034;-71
2023/08/07 09:02:45;;;;;;;2.38;1.20;;;;;;;;;;4980282;28;20030;-76
2023/08/07 09:05:31;;;;;;;1.75;1.17;;;;;;;;;;4987286;28;20044;-77
2023/08/07 09:08:16;;;;;;;2.55;1.40;;;;;;;;;;4969884;28;20049;-72
2023/08/07 09:11:02;;;;;;;1.30;1.00;;;;;;;;;;4971378;28;20105;-71
2023/08/07 09:13:48;;;;;;;2.40;1.13;;;;;;;;;;4988278;28;20027;-72
2023/08/07 09:16:34;;;;;;;2.53;1.50;;;;;;;;;;4976229;28;20085;-71
2023/08/07 09:19:19;;;;;;;2.03;1.27;;;;;;;;;;4984474;28;20026;-71
2023/08/07 09:22:04;;;;;;;2.00;1.17;;;;;;;;;;4976153;28;20735;-71
2023/08/07 09:24:49;;;;;;;2.80;1.50;;;;;;;;;;4975686;28;20520;-76
2023/08/07 09:27:36;;;;;;;1.73;1.17;;;;;;;;;;4991136;28;20034;-75
2023/08/07 09:30:25;;;;;;;2.03;1.27;;;;;;;;;;5000533;28;20042;-77
2023/08/07 09:33:10;;;;;;;3.33;1.50;;;;;;;;;;4989920;28;20046;-75
2023/08/07 09:36:00;;;;;;;1.83;1.20;;;;;;;;;;4988998;28;20058;-76
2023/08/07 09:38:52;;;;;;;1.48;1.10;;;;;;;;;;4975270;28;20698;-75
2023/08/07 09:41:37;;;;;;;1.55;1.08;;;;;;;;;;4985420;28;20505;-71
2023/08/07 09:44:22;;;;;;;3.45;1.55;;;;;;;;;;4971789;28;20107;-72
2023/08/07 09:47:15;;;;;;;5.85;1.50;;;;;;;;;;4990921;28;20033;-71
2023/08/07 09:50:00;;;;;;;3.78;1.25;;;;;;;;;;4973035;28;20030;-70
2023/08/07 09:52:47;;;;;;;4.50;1.67;;;;;;;;;;4974171;28;20501;-71
2023/08/07 09:55:33;;;;;;;1.65;1.30;;;;;;;;;;4984374;28;20022;-71
2023/08/07 09:58:18;;;;;;;3.33;1.33;;;;;;;;;;4988592;28;20038;-72
2023/08/07 10:01:04;;;;;;;2.42;1.15;;;;;;;;;;4984803;28;20022;-79
2023/08/07 10:03:49;;;;;;;4.15;1.27;;;;;;;;;;4984617;28;20030;-76
2023/08/07 10:06:35;;;;;;;1.50;1.00;;;;;;;;;;4990277;28;20022;-79
2023/08/07 10:09:21;;;;;;;3.13;1.42;;;;;;;;;;4989360;28;20482;-76
2023/08/07 10:12:06;;;;;;;4.65;1.40;;;;;;;;;;4964990;28;20051;-76
2023/08/07 10:14:53;;;;;;;2.28;1.20;;;;;;;;;;4985388;28;20335;-80
2023/08/07 10:17:38;;;;;;;2.63;1.42;;;;;;;;;;4977353;28;20509;-75
2023/08/07 10:20:28;;;;;;;1.98;1.27;;;;;;;;;;4975370;28;20033;-79
2023/08/07 10:23:15;;;;;;;4.65;1.70;;;;;;;;;;4977219;28;20033;-78
2023/08/07 10:26:02;;;;;;;4.05;1.73;;;;;;;;;;4970453;28;20394;-78
2023/08/07 10:28:49;;;;;;;4.07;1.35;;;;;;;;;;4994148;28;20030;-77
2023/08/07 10:31:35;;;;;;;3.90;1.80;;;;;;;;;;4985017;28;20023;-78
2023/08/07 10:34:21;;;;;;;4.13;1.75;;;;;;;;;;4975838;28;20033;-72
2023/08/07 10:37:07;;;;;;;3.58;1.75;;;;;;;;;;4987819;28;20117;-69
2023/08/07 10:40:05;;;;;;;3.00;1.52;;;;;;;;;;4989951;28;20401;-78
2023/08/07 10:42:59;;;;;;;4.65;1.58;;;;;;;;;;4971236;28;20338;-76
2023/08/07 10:45:44;;;;;;;4.47;1.30;;;;;;;;;;4988359;28;20034;-79
2023/08/07 10:48:30;;;;;;;2.85;1.73;;;;;;;;;;4989908;28;20500;-78
2023/08/07 10:51:18;;;;;;;2.00;1.33;;;;;;;;;;4989303;28;20029;-78
2023/08/07 10:54:03;;;;;;;2.60;1.57;;;;;;;;;;4989874;28;20098;-76
2023/08/07 10:56:52;;;;;;;3.28;1.83;;;;;;;;;;4977607;28;20128;-79
2023/08/07 10:59:37;;;;;;;3.50;1.33;;;;;;;;;;4962128;28;20026;-78
2023/08/07 11:02:24;;;;;;;3.15;1.50;;;;;;;;;;4970061;28;20086;-77
2023/08/07 11:05:10;;;;;;;2.83;1.42;;;;;;;;;;4986910;28;20038;-78
2023/08/07 11:07:57;;;;;;;3.40;1.70;;;;;;;;;;4973836;28;20022;-76
2023/08/07 11:10:42;;;;;;;2.58;1.40;;;;;;;;;;4973149;28;20026;-79
2023/08/07 11:13:29;;;;;;;4.93;1.55;;;;;;;;;;4965724;28;20382;-79
2023/08/07 11:16:14;;;;;;;3.38;1.70;;;;;;;;;;4969053;28;20657;-79
2023/08/07 11:19:00;;;;;;;4.10;1.77;;;;;;;;;;4956676;28;20414;-78
2023/08/07 11:21:45;;;;;;;4.25;1.65;;;;;;;;;;4965698;28;20034;-78
2023/08/07 11:24:30;;;;;;;2.13;1.60;;;;;;;;;;4971838;28;20018;-77
2023/08/07 11:27:15;;;;;;;1.98;1.60;;;;;;;;;;4967090;28;20142;-80
2023/08/07 11:30:01;;;;;;;1.58;1.10;;;;;;;;;;4962641;28;20030;-78
2023/08/07 11:32:46;;;;;;;2.00;1.48;;;;;;;;;;4988065;28;20508;-69
2023/08/07 11:35:31;;;;;;;2.28;1.30;;;;;;;;;;4988781;28;20029;-69
2023/08/07 11:38:33;;;;;;;2.15;1.35;;;;;;;;;;4983093;28;20089;-70
2023/08/07 11:41:19;;;;;;;1.25;1.00;;;;;;;;;;4984116;28;20044;-70
2023/08/07 11:44:07;;;;;;;3.40;1.80;;;;;;;;;;4989326;28;20450;-70
2023/08/07 11:46:52;;;;;;;3.42;2.00;;;;;;;;;;4973155;28;20061;-69
2023/08/07 11:49:38;;;;;;;2.63;1.50;;;;;;;;;;4978885;28;20026;-78
2023/08/07 11:52:24;;;;;;;1.77;1.20;;;;;;;;;;4987349;28;20081;-77
2023/08/07 11:55:09;;;;;;;4.53;1.73;;;;;;;;;;4975663;28;20073;-77
2023/08/07 11:57:55;;;;;;;8.50;2.58;;;;;;;;;;4972908;28;20038;-77
2023/08/07 12:00:43;;;;;;;8.77;2.92;;;;;;;;;;4973359;28;20540;-77
2023/08/07 12:03:34;;;;;;;3.67;1.70;;;;;;;;;;4967313;28;20030;-78
2023/08/07 12:06:19;;;;;;;3.80;1.95;;;;;;;;;;4972327;28;20386;-77
2023/08/07 12:09:05;;;;;;;3.88;1.63;;;;;;;;;;4988438;28;20073;-78
2023/08/07 12:11:55;;;;;;;4.60;2.25;;;;;;;;;;4966833;28;20054;-70
2023/08/07 12:14:40;;;;;;;4.47;1.73;;;;;;;;;;4956396;28;20029;-69
2023/08/07 12:17:25;;;;;;;2.92;1.45;;;;;;;;;;4968229;28;20054;-73
2023/08/07 12:20:11;;;;;;;3.15;1.85;;;;;;;;;;4989043;28;20030;-72
2023/08/07 12:22:56;;;;;;;2.10;1.50;;;;;;;;;;4985685;28;20026;-72
2023/08/07 12:25:42;;;;;;;1.60;1.50;;;;;;;;;;4971485;28;20029;-74
2023/08/07 12:28:27;;;;;;;1.88;1.58;;;;;;;;;;4981562;28;20030;-70
2023/08/07 12:31:12;;;;;;;3.70;1.55;;;;;;;;;;4988208;28;20117;-71
2023/08/07 12:33:58;;;;;;;1.67;1.27;;;;;;;;;;4988217;28;20104;-70
2023/08/07 12:36:43;;;;;;;2.70;1.55;;;;;;;;;;4967968;28;20333;-72
2023/08/07 12:39:28;;;;;;;3.33;1.88;;;;;;;;;;4978196;28;20031;-70
2023/08/07 12:42:13;;;;;;;2.67;1.50;;;;;;;;;;4967898;28;20035;-70
2023/08/07 12:44:59;;;;;;;3.33;1.92;;;;;;;;;;4968490;28;20401;-79
2023/08/07 12:47:44;;;;;;;5.78;2.83;;;;;;;;;;4973580;28;20397;-77
2023/08/07 12:50:30;;;;;;;2.30;1.50;;;;;;;;;;4974479;28;20026;-78
2023/08/07 12:53:15;;;;;;;2.28;1.45;;;;;;;;;;4988035;28;20026;-77
2023/08/07 12:56:01;;;;;;;2.85;1.65;;;;;;;;;;4983236;28;20210;-76
2023/08/07 12:58:46;;;;;;;2.25;1.77;;;;;;;;;;4987300;28;20026;-78
2023/08/07 13:01:32;;;;;;;3.42;1.70;;;;;;;;;;4990652;28;20574;-80
2023/08/07 13:04:18;;;;;;;3.03;2.08;;;;;;;;;;4991715;28;20045;-70
2023/08/07 13:07:03;;;;;;;2.70;1.90;;;;;;;;;;4991362;28;20057;-79
2023/08/07 13:09:49;;;;;;;3.80;1.55;;;;;;;;;;4971874;28;20030;-79
2023/08/07 13:12:38;;;;;;;3.17;1.65;;;;;;;;;;4975251;28;20061;-77
2023/08/07 13:15:25;;;;;;;3.00;1.70;;;;;;;;;;4977582;28;20022;-77
2023/08/07 13:18:10;;;;;;;3.13;1.77;;;;;;;;;;4972817;28;20038;-78
2023/08/07 13:20:56;;;;;;;3.45;1.40;;;;;;;;;;4973767;28;20022;-76
2023/08/07 13:23:41;;;;;;;2.33;1.42;;;;;;;;;;4970718;28;20554;-74
2023/08/07 13:26:27;;;;;;;4.95;1.90;;;;;;;;;;4990582;28;20037;-74
2023/08/07 13:29:12;;;;;;;3.58;1.58;;;;;;;;;;4991572;28;20122;-74
2023/08/07 13:31:57;;;;;;;3.75;1.55;;;;;;;;;;4986417;28;20576;-75
2023/08/07 13:34:42;;;;;;;3.65;2.10;;;;;;;;;;4984346;28;20041;-75
2023/08/07 13:37:28;;;;;;;5.32;2.03;;;;;;;;;;4967148;28;20034;-74
2023/08/07 13:40:13;;;;;;;4.90;2.00;;;;;;;;;;4977286;28;20088;-79
2023/08/07 13:43:02;;;;;;;3.88;1.67;;;;;;;;;;4991100;28;20474;-75
2023/08/07 13:45:47;;;;;;;5.30;1.85;;;;;;;;;;4991660;28;20042;-74
2023/08/07 13:48:33;;;;;;;3.58;1.98;;;;;;;;;;4968931;28;20496;-75
2023/08/07 13:51:19;;;;;;;2.60;1.70;;;;;;;;;;4968883;28;20077;-75
2023/08/07 13:54:04;;;;;;;2.78;1.90;;;;;;;;;;4975441;28;20117;-75
2023/08/07 13:56:50;;;;;;;4.57;2.13;;;;;;;;;;4990451;28;20493;-75
2023/08/07 13:59:35;;;;;;;2.20;1.38;;;;;;;;;;4984574;28;20022;-71
2023/08/07 14:02:20;;;;;;;2.88;1.85;;;;;;;;;;4974655;28;20081;-75
2023/08/07 14:05:06;;;;;;;2.40;1.80;;;;;;;;;;4991404;28;20026;-77
2023/08/07 14:07:53;;;;;;;3.58;1.90;;;;;;;;;;4980225;28;20026;-76
2023/08/07 14:10:40;;;;;;;2.08;1.50;;;;;;;;;;4990109;28;20417;-75
2023/08/07 14:13:26;;;;;;;6.32;2.10;;;;;;;;;;4990620;28;20505;-76
2023/08/07 14:16:11;;;;;;;4.00;1.70;;;;;;;;;;4990125;28;20587;-76
2023/08/07 14:18:56;;;;;;;2.35;1.60;;;;;;;;;;4982872;28;20053;-71
2023/08/07 14:21:42;;;;;;;3.55;2.40;;;;;;;;;;4957887;28;20034;-70
2023/08/07 14:24:27;;;;;;;2.40;1.88;;;;;;;;;;4977923;28;20022;-70
2023/08/07 14:27:12;;;;;;;5.57;1.90;;;;;;;;;;4968713;28;20045;-70
2023/08/07 14:29:57;;;;;;;3.88;2.00;;;;;;;;;;4977839;28;20064;-69
2023/08/07 14:32:42;;;;;;;2.72;1.67;;;;;;;;;;4969861;28;20040;-70
2023/08/07 14:35:28;;;;;;;2.83;1.85;;;;;;;;;;4970563;28;20386;-70
2023/08/07 14:38:14;;;;;;;3.75;2.00;;;;;;;;;;4983722;28;20040;-73
2023/08/07 14:41:00;;;;;;;2.28;1.70;;;;;;;;;;4976230;28;20037;-75
2023/08/07 14:43:46;;;;;;;3.13;1.52;;;;;;;;;;4976580;28;20034;-73
2023/08/07 14:46:31;;;;;;;2.60;1.73;;;;;;;;;;4989926;28;20065;-72
2023/08/07 14:49:17;;;;;;;2.85;1.42;;;;;;;;;;4974351;28;20482;-73
2023/08/07 14:52:02;;;;;;;3.53;1.92;;;;;;;;;;4961657;28;20082;-78
2023/08/07 14:54:47;;;;;;;2.13;1.55;;;;;;;;;;4975250;28;20057;-75
2023/08/07 14:57:33;;;;;;;3.17;1.75;;;;;;;;;;4988270;28;20034;-75
2023/08/07 15:00:19;;;;;;;3.03;1.95;;;;;;;;;;4976100;28;20058;-76
2023/08/07 15:03:05;;;;;;;4.45;2.13;;;;;;;;;;4974473;28;20113;-75
2023/08/07 15:05:50;;;;;;;3.92;1.85;;;;;;;;;;4963098;28;20022;-75
2023/08/07 15:08:35;;;;;;;2.17;1.50;;;;;;;;;;4975888;28;20119;-76
2023/08/07 15:11:21;;;;;;;3.83;1.92;;;;;;;;;;4986992;28;20474;-77
2023/08/07 15:14:06;;;;;;;3.90;1.85;;;;;;;;;;4988315;28;20022;-72
2023/08/07 15:16:51;;;;;;;6.07;1.65;;;;;;;;;;4989298;28;20521;-71
2023/08/07 15:19:36;;;;;;;2.13;1.45;;;;;;;;;;4958958;28;20026;-72
2023/08/07 15:22:21;;;;;;;2.45;1.60;;;;;;;;;;4980378;28;20478;-70
2023/08/07 15:25:07;;;;;;;3.03;1.92;;;;;;;;;;4971872;28;20018;-70
2023/08/07 15:27:54;;;;;;;2.88;1.85;;;;;;;;;;4978225;28;20042;-70
2023/08/07 15:30:46;;;;;;;1.88;1.40;;;;;;;;;;4978903;28;20032;-76
2023/08/07 15:33:32;;;;;;;5.25;1.65;;;;;;;;;;4983719;28;20459;-72
2023/08/07 15:36:17;;;;;;;3.45;2.08;;;;;;;;;;4977507;28;20034;-72
2023/08/07 15:39:02;;;;;;;3.30;1.38;;;;;;;;;;4963724;28;20038;-70
2023/08/07 15:41:48;;;;;;;2.92;1.55;;;;;;;;;;4995804;28;20022;-72
2023/08/07 15:44:33;;;;;;;4.80;1.77;;;;;;;;;;4989595;28;20172;-71
2023/08/07 15:47:18;;;;;;;2.65;1.60;;;;;;;;;;4996152;28;20029;-77
2023/08/07 15:50:04;;;;;;;2.20;1.77;;;;;;;;;;4971805;28;20137;-76
2023/08/07 15:52:49;;;;;;;3.10;1.80;;;;;;;;;;4988558;28;20452;-76
2023/08/07 15:55:37;;;;;;;2.05;1.45;;;;;;;;;;4985111;28;20037;-73
2023/08/07 15:58:24;;;;;;;2.97;1.73;;;;;;;;;;4986530;28;20077;-77
2023/08/07 16:01:10;;;;;;;4.05;1.98;;;;;;;;;;4979983;28;20421;-74
2023/08/07 16:03:58;;;;;;;3.13;1.70;;;;;;;;;;4985532;28;20371;-75
2023/08/07 16:06:43;;;;;;;3.47;1.60;;;;;;;;;;4987944;28;20466;-77
2023/08/07 16:09:30;;;;;;;2.85;1.65;;;;;;;;;;4983549;28;20035;-71
2023/08/07 16:12:17;;;;;;;4.88;1.52;;;;;;;;;;4986872;28;20031;-70
2023/08/07 16:15:02;;;;;;;3.33;1.83;;;;;;;;;;4989793;28;20745;-72
2023/08/07 16:17:48;;;;;;;3.53;1.58;;;;;;;;;;4986106;28;20054;-71
2023/08/07 16:20:33;;;;;;;4.07;1.50;;;;;;;;;;4972486;28;20076;-70
2023/08/07 16:23:18;;;;;;;2.58;1.55;;;;;;;;;;4967415;28;20042;-70
2023/08/07 16:26:03;;;;;;;3.25;1.92;;;;;;;;;;4969017;28;20223;-75
2023/08/07 16:28:49;;;;;;;3.75;1.80;;;;;;;;;;4971405;28;20096;-77
2023/08/07 16:31:34;;;;;;;2.72;1.40;;;;;;;;;;4987798;28;20018;-77
2023/08/07 16:34:19;;;;;;;4.40;1.73;;;;;;;;;;4985426;28;20086;-77